Flugplatz Dörzbach Hohebach (UL)

Hier findest Du alle Informationen zum Flugplatz Dörzbach Hohebach (UL).

Informationen für Piloten zum Flugplatz Dörzbach Hohebach

Hier findest Du alle relevanten Informationen, die Du als Pilot benötigst, um Dörzbach Hohebach anzufliegen.

Flugplatz: Dörzbach Hohebach ICAO-Code: UL Flugplatz
Frequenz Turm: 123.425 Mhz GAFOR Gebiet: 55
Frequenz Ground: 123.425 Mhz Mogas: nein
Platzrunde: NO 2000 ft Landegebühr: -
Platzhöhe: Sunrise: 07:06 Uhr UTC
Pisten: 15/33 - 290 m x 20 m, GRAS Sunset: 15:56 Uhr UTC

Mitglieder, die in Dörzbach Hohebach fliegen

Flugwetter am Flugplatz Dörzbach Hohebach

Die METAR Information stammen aus EDDS (81.73 km entfernt).

METAR Code:
2022/01/16 08:20
EDDS 160820Z 35003KT 320V030 0300 R25/0650N FZFG BKN001 M04/M05 Q1025 BECMG 9999 NSW SCT001

Flugschulen am Flugplatz Dörzbach Hohebach

Am Flugplatz Dörzbach Hohebach gibt es leider keine Flugschule.

Benachbarte Flugplätze und Flugschulen

Es gibt 20 weitere Flugplätze in einem Umkreis von 50 km um den Flugplatz Dörzbach Hohebach.

Jetzt anmelden

Passwort vergessen

Umfrage Archiv

Welche Navigations-App nutzt Ihr im Cockpit

SkyDemon
50.6 %
VFRnav
19.4 %
Ich nutze eine andere App
17.8 %
EasyVFR
5.3 %
Ich nutze gar keine App
5.3 %
ForeFlight
1.6 %
Stimmen: 247 | Diskussion (45)
Anzeige: Roland Aircraft
Statistik Alle Mitglieder

Aktuell sind 89 Besucher online, davon 1 Mitglied und 88 Gäste.


Mitglieder online:
francop 

Anzeige: Pocket FMS